Time;durP1;ratioP1;P1;durP2;ratioP2;P2;SDS_P1;SDS_P2;PMS_P1;PMS_P2;Temp;Humidity;BMP_temperature;BMP_pressure;BME280_temperature;BME280_humidity;BME280_pressure;Samples;Min_cycle;Max_cycle;Signal;HPM_P1;HPM_P2
2021/07/13 00:01:39;;;;;;;11.52;5.43;;;;;;;;;;6301221;22;20435;-45
2021/07/13 00:04:05;;;;;;;15.65;6.13;;;;;;;;;;6299654;22;20082;-44
2021/07/13 00:06:31;;;;;;;15.88;5.75;;;;;;;;;;6300836;22;20034;-45
2021/07/13 00:08:56;;;;;;;14.48;3.33;;;;;;;;;;6301276;22;20010;-46
2021/07/13 00:11:22;;;;;;;6.75;3.25;;;;;;;;;;6300737;22;20432;-44
2021/07/13 00:13:47;;;;;;;10.18;3.72;;;;;;;;;;6300687;22;20027;-45
2021/07/13 00:16:13;;;;;;;20.30;5.30;;;;;;;;;;6301190;22;20003;-45
2021/07/13 00:18:38;;;;;;;10.57;4.43;;;;;;;;;;6300632;22;19999;-45
2021/07/13 00:21:06;;;;;;;26.45;4.72;;;;;;;;;;6301049;22;19999;-45
2021/07/13 00:23:32;;;;;;;17.40;4.75;;;;;;;;;;6301085;22;19991;-46
2021/07/13 00:25:57;;;;;;;25.90;6.25;;;;;;;;;;6300809;22;20006;-45
2021/07/13 00:28:22;;;;;;;15.65;4.90;;;;;;;;;;6301016;22;20006;-46
2021/07/13 00:30:48;;;;;;;14.88;4.82;;;;;;;;;;6301044;22;19996;-45
2021/07/13 00:33:14;;;;;;;13.82;4.43;;;;;;;;;;6300568;22;20403;-45
2021/07/13 00:35:40;;;;;;;27.08;6.32;;;;;;;;;;6302182;22;20026;-46
2021/07/13 00:38:05;;;;;;;16.05;6.03;;;;;;;;;;6303533;22;19995;-48
2021/07/13 00:40:30;;;;;;;13.65;4.18;;;;;;;;;;6302713;22;20007;-44
2021/07/13 00:42:56;;;;;;;11.82;7.22;;;;;;;;;;6303211;22;20003;-44
2021/07/13 00:45:22;;;;;;;14.10;5.28;;;;;;;;;;6303086;22;20332;-44
2021/07/13 00:47:48;;;;;;;13.13;4.57;;;;;;;;;;6302329;22;20464;-44
2021/07/13 00:50:14;;;;;;;12.77;3.70;;;;;;;;;;6303082;22;20049;-45
2021/07/13 00:52:39;;;;;;;7.40;3.17;;;;;;;;;;6302638;22;20082;-47
2021/07/13 00:55:05;;;;;;;8.88;4.65;;;;;;;;;;6302974;22;20032;-47
2021/07/13 00:57:30;;;;;;;9.48;4.00;;;;;;;;;;6302774;22;20023;-47
2021/07/13 00:59:55;;;;;;;13.10;4.18;;;;;;;;;;6302842;22;20629;-51
2021/07/13 01:02:21;;;;;;;9.32;4.40;;;;;;;;;;6301404;22;20436;-45
2021/07/13 01:04:50;;;;;;;9.45;4.00;;;;;;;;;;6302332;22;19999;-48
2021/07/13 01:07:16;;;;;;;11.07;4.20;;;;;;;;;;6302726;22;20030;-45
2021/07/13 01:09:53;;;;;;;18.92;5.40;;;;;;;;;;6302762;22;19995;-47
2021/07/13 01:12:40;;;;;;;16.00;5.68;;;;;;;;;;6302637;22;20325;-49
2021/07/13 01:15:07;;;;;;;6.47;3.28;;;;;;;;;;6302154;22;20014;-44
2021/07/13 01:17:33;;;;;;;13.77;5.35;;;;;;;;;;6302819;22;20023;-46
2021/07/13 01:20:19;;;;;;;13.02;5.20;;;;;;;;;;6302670;22;19996;-45
2021/07/13 01:22:49;;;;;;;16.08;5.00;;;;;;;;;;6302156;22;20029;-44
2021/07/13 01:25:23;;;;;;;19.63;4.30;;;;;;;;;;6303136;22;19995;-46
2021/07/13 01:28:18;;;;;;;9.30;4.82;;;;;;;;;;6302342;22;20220;-44
2021/07/13 01:30:46;;;;;;;10.40;5.13;;;;;;;;;;6281914;22;20093;-45
2021/07/13 01:33:13;;;;;;;12.55;5.68;;;;;;;;;;6302298;22;20106;-44
2021/07/13 01:35:46;;;;;;;5.68;3.08;;;;;;;;;;6302006;22;20048;-46
2021/07/13 01:38:14;;;;;;;29.15;4.68;;;;;;;;;;6302091;22;20002;-45
2021/07/13 01:40:40;;;;;;;14.35;4.07;;;;;;;;;;6301863;22;19995;-46
2021/07/13 01:43:07;;;;;;;11.38;5.28;;;;;;;;;;6302129;22;20049;-45
2021/07/13 01:45:33;;;;;;;15.68;4.68;;;;;;;;;;6301966;22;19995;-44
2021/07/13 01:47:59;;;;;;;17.48;3.30;;;;;;;;;;6302372;22;20006;-50
2021/07/13 01:50:26;;;;;;;7.95;3.97;;;;;;;;;;6302154;22;20023;-46
2021/07/13 01:52:52;;;;;;;9.95;3.53;;;;;;;;;;6302370;22;20028;-44
2021/07/13 01:55:18;;;;;;;14.10;3.58;;;;;;;;;;6302395;22;19995;-43
2021/07/13 01:57:44;;;;;;;8.85;3.75;;;;;;;;;;6302043;22;19999;-45
2021/07/13 02:00:10;;;;;;;17.65;4.05;;;;;;;;;;6302046;22;20028;-47
2021/07/13 02:02:37;;;;;;;20.02;4.05;;;;;;;;;;6301829;22;20002;-45
2021/07/13 02:05:03;;;;;;;9.93;3.22;;;;;;;;;;6302606;22;20087;-45
2021/07/13 02:07:30;;;;;;;37.80;6.57;;;;;;;;;;6302021;22;20021;-44
2021/07/13 02:09:57;;;;;;;6.78;3.85;;;;;;;;;;6302001;22;20034;-44
2021/07/13 02:12:22;;;;;;;16.40;5.20;;;;;;;;;;6301917;22;20446;-44
2021/07/13 02:14:47;;;;;;;9.13;3.38;;;;;;;;;;6299447;22;20451;-44
2021/07/13 02:17:18;;;;;;;12.88;4.43;;;;;;;;;;6302042;22;19995;-45
2021/07/13 02:19:43;;;;;;;21.83;5.90;;;;;;;;;;6302174;22;20003;-46
2021/07/13 02:22:09;;;;;;;16.80;5.60;;;;;;;;;;6302558;22;20365;-47
2021/07/13 02:24:34;;;;;;;14.50;4.78;;;;;;;;;;6301763;22;20397;-44
2021/07/13 02:27:02;;;;;;;9.77;4.85;;;;;;;;;;6301609;22;20052;-48
2021/07/13 02:29:29;;;;;;;7.97;2.95;;;;;;;;;;6301449;22;19999;-44
2021/07/13 02:32:03;;;;;;;13.35;4.30;;;;;;;;;;6301530;22;20048;-45
2021/07/13 02:34:30;;;;;;;6.53;2.88;;;;;;;;;;6301442;22;19999;-43
2021/07/13 02:36:57;;;;;;;9.48;3.60;;;;;;;;;;6302187;22;19991;-44
2021/07/13 02:39:25;;;;;;;8.15;4.15;;;;;;;;;;6302029;22;19999;-45
2021/07/13 02:41:51;;;;;;;4.78;2.53;;;;;;;;;;6302047;22;20003;-47
2021/07/13 02:44:22;;;;;;;14.85;3.90;;;;;;;;;;6301880;22;20034;-44
2021/07/13 02:46:48;;;;;;;14.07;3.75;;;;;;;;;;6301342;22;20026;-45
2021/07/13 02:49:15;;;;;;;8.73;2.97;;;;;;;;;;6301444;22;19999;-45
2021/07/13 02:51:41;;;;;;;12.48;4.47;;;;;;;;;;6301662;22;20006;-44
2021/07/13 02:54:07;;;;;;;12.40;5.28;;;;;;;;;;6301581;22;19995;-44
2021/07/13 02:56:33;;;;;;;13.02;3.40;;;;;;;;;;6301816;22;19999;-43
2021/07/13 02:58:59;;;;;;;21.83;5.45;;;;;;;;;;6301473;22;20073;-45
2021/07/13 03:01:26;;;;;;;11.48;3.65;;;;;;;;;;6301763;22;19999;-47
2021/07/13 03:03:52;;;;;;;9.45;3.15;;;;;;;;;;6301478;22;20436;-47
2021/07/13 03:06:19;;;;;;;23.35;5.03;;;;;;;;;;6301616;22;20019;-46
2021/07/13 03:08:44;;;;;;;10.10;3.10;;;;;;;;;;6301478;22;20369;-44
2021/07/13 03:11:10;;;;;;;10.65;4.38;;;;;;;;;;6301577;22;20001;-44
2021/07/13 03:13:35;;;;;;;5.93;3.17;;;;;;;;;;6301332;22;20023;-44
2021/07/13 03:16:01;;;;;;;11.45;4.15;;;;;;;;;;6300889;22;19996;-47
2021/07/13 03:18:28;;;;;;;14.02;4.35;;;;;;;;;;6301268;22;20006;-48
2021/07/13 03:20:54;;;;;;;11.23;4.40;;;;;;;;;;6301877;22;20006;-48
2021/07/13 03:23:21;;;;;;;18.65;4.50;;;;;;;;;;6301649;22;20027;-44
2021/07/13 03:25:48;;;;;;;23.45;5.85;;;;;;;;;;6301210;22;20003;-44
2021/07/13 03:28:14;;;;;;;18.58;3.97;;;;;;;;;;6301029;22;20038;-45
2021/07/13 03:30:40;;;;;;;21.30;3.22;;;;;;;;;;6301403;22;19995;-46
2021/07/13 03:33:06;;;;;;;8.35;3.13;;;;;;;;;;6300892;22;20451;-44
2021/07/13 03:35:31;;;;;;;11.63;3.47;;;;;;;;;;6300989;22;20002;-46
2021/07/13 03:37:57;;;;;;;9.25;3.65;;;;;;;;;;6301369;22;19999;-45
2021/07/13 03:40:23;;;;;;;18.10;4.28;;;;;;;;;;6301003;22;20022;-45
2021/07/13 03:42:49;;;;;;;11.30;3.42;;;;;;;;;;6301171;22;20006;-44
2021/07/13 03:45:18;;;;;;;9.68;3.60;;;;;;;;;;6301324;22;19999;-46
2021/07/13 03:47:45;;;;;;;7.75;2.70;;;;;;;;;;6300704;22;19999;-44
2021/07/13 03:50:10;;;;;;;12.68;3.85;;;;;;;;;;6301644;22;20002;-44
2021/07/13 03:52:36;;;;;;;7.60;2.35;;;;;;;;;;6301067;22;19995;-44
2021/07/13 03:55:01;;;;;;;19.50;4.32;;;;;;;;;;6300985;22;20025;-45
2021/07/13 03:57:26;;;;;;;17.90;5.15;;;;;;;;;;6300804;22;19995;-45
2021/07/13 03:59:51;;;;;;;18.88;4.28;;;;;;;;;;6301347;22;20010;-44
2021/07/13 04:02:17;;;;;;;11.10;3.22;;;;;;;;;;6301130;22;20436;-47
2021/07/13 04:04:42;;;;;;;13.95;5.15;;;;;;;;;;6301357;22;20003;-45
2021/07/13 04:07:07;;;;;;;19.52;6.05;;;;;;;;;;6301094;22;20375;-46
2021/07/13 04:09:32;;;;;;;27.58;5.95;;;;;;;;;;6300850;22;20003;-46
2021/07/13 04:11:58;;;;;;;9.25;3.38;;;;;;;;;;6303571;22;19998;-46
2021/07/13 04:14:23;;;;;;;18.13;4.70;;;;;;;;;;6302625;22;20500;-47
2021/07/13 04:16:48;;;;;;;15.40;4.50;;;;;;;;;;6303464;22;20025;-49
2021/07/13 04:19:14;;;;;;;11.32;5.07;;;;;;;;;;6303402;22;20577;-49
2021/07/13 04:21:39;;;;;;;16.50;3.42;;;;;;;;;;6302650;22;20820;-46
2021/07/13 04:24:04;;;;;;;27.88;4.20;;;;;;;;;;6303180;22;20006;-45
2021/07/13 04:26:30;;;;;;;14.00;3.03;;;;;;;;;;6303039;22;20084;-48
2021/07/13 04:28:55;;;;;;;10.35;3.70;;;;;;;;;;6303155;22;20421;-47
2021/07/13 04:31:20;;;;;;;12.70;4.45;;;;;;;;;;6303029;22;20435;-46
2021/07/13 04:33:47;;;;;;;24.05;4.07;;;;;;;;;;6303041;22;20026;-50
2021/07/13 04:36:12;;;;;;;14.07;6.25;;;;;;;;;;6302931;22;19988;-46
2021/07/13 04:38:37;;;;;;;9.23;4.45;;;;;;;;;;6303071;22;20068;-50
2021/07/13 04:41:03;;;;;;;10.70;4.38;;;;;;;;;;6303259;22;20003;-45
2021/07/13 04:43:28;;;;;;;12.90;4.55;;;;;;;;;;6302596;22;20132;-45
2021/07/13 04:45:53;;;;;;;6.70;2.88;;;;;;;;;;6302704;22;20129;-46
2021/07/13 04:48:19;;;;;;;9.32;3.65;;;;;;;;;;6302851;22;20082;-51
2021/07/13 04:50:44;;;;;;;8.65;3.78;;;;;;;;;;6302698;22;20330;-45
2021/07/13 04:53:10;;;;;;;6.90;3.58;;;;;;;;;;6302921;22;19994;-44
2021/07/13 04:55:35;;;;;;;11.18;4.45;;;;;;;;;;6302291;22;20054;-47
2021/07/13 04:58:00;;;;;;;18.67;4.03;;;;;;;;;;6303050;22;20001;-48
2021/07/13 05:00:25;;;;;;;9.15;4.05;;;;;;;;;;6302582;22;20003;-48
2021/07/13 05:02:51;;;;;;;13.68;3.22;;;;;;;;;;6302529;22;20000;-47
2021/07/13 05:05:17;;;;;;;11.48;3.22;;;;;;;;;;6302692;22;19996;-45
2021/07/13 05:07:46;;;;;;;9.48;4.05;;;;;;;;;;6302495;22;20006;-45
2021/07/13 05:10:13;;;;;;;10.05;4.25;;;;;;;;;;6303128;22;19999;-47
2021/07/13 05:12:39;;;;;;;24.88;4.25;;;;;;;;;;6302506;22;20064;-45
2021/07/13 05:15:05;;;;;;;11.82;3.85;;;;;;;;;;6302199;22;20015;-46
2021/07/13 05:17:30;;;;;;;14.23;4.13;;;;;;;;;;6302096;22;20332;-48
2021/07/13 05:19:56;;;;;;;30.50;9.80;;;;;;;;;;6302413;22;20505;-46
2021/07/13 05:22:21;;;;;;;30.73;4.78;;;;;;;;;;6302490;22;20010;-42
2021/07/13 05:24:47;;;;;;;15.05;9.00;;;;;;;;;;6302287;22;20082;-44
2021/07/13 05:27:13;;;;;;;13.45;5.60;;;;;;;;;;6302613;22;20030;-42
2021/07/13 05:29:39;;;;;;;13.90;7.97;;;;;;;;;;6302579;22;20281;-42
2021/07/13 05:32:04;;;;;;;16.70;5.80;;;;;;;;;;6302293;22;19995;-42
2021/07/13 05:34:30;;;;;;;15.88;4.28;;;;;;;;;;6301980;22;20050;-45
2021/07/13 05:36:55;;;;;;;17.70;4.47;;;;;;;;;;6302236;22;19995;-45
2021/07/13 05:39:20;;;;;;;6.28;3.28;;;;;;;;;;6302509;22;20006;-44
2021/07/13 05:41:46;;;;;;;9.43;3.42;;;;;;;;;;6302230;22;20428;-41
2021/07/13 05:44:11;;;;;;;10.02;2.47;;;;;;;;;;6302150;22;19999;-40
2021/07/13 05:46:36;;;;;;;18.95;1.75;;;;;;;;;;6301858;22;20003;-40
2021/07/13 05:49:02;;;;;;;7.03;2.92;;;;;;;;;;6301789;22;20003;-41
2021/07/13 05:51:27;;;;;;;14.05;2.85;;;;;;;;;;6301941;22;20116;-41
2021/07/13 05:53:52;;;;;;;12.60;2.22;;;;;;;;;;6302206;22;20029;-41
2021/07/13 05:56:18;;;;;;;17.92;3.22;;;;;;;;;;6302345;22;19999;-43
2021/07/13 05:58:43;;;;;;;12.60;2.78;;;;;;;;;;6302190;22;20033;-43
2021/07/13 06:01:08;;;;;;;4.32;1.75;;;;;;;;;;6302241;22;20449;-42
2021/07/13 06:03:34;;;;;;;6.65;1.00;;;;;;;;;;6301869;22;20456;-41
2021/07/13 06:05:59;;;;;;;2.17;1.08;;;;;;;;;;6302065;22;20428;-40
2021/07/13 06:08:24;;;;;;;1.13;0.68;;;;;;;;;;6301587;22;19999;-40
2021/07/13 06:10:50;;;;;;;0.73;0.50;;;;;;;;;;6301544;22;20002;-44
2021/07/13 06:13:15;;;;;;;0.63;0.25;;;;;;;;;;6301926;22;20010;-40
2021/07/13 06:15:41;;;;;;;7.97;2.28;;;;;;;;;;6301839;22;20618;-41
2021/07/13 06:18:06;;;;;;;2.90;0.65;;;;;;;;;;6301509;22;20010;-45
2021/07/13 06:20:33;;;;;;;10.88;1.55;;;;;;;;;;6301561;22;20003;-46
2021/07/13 06:22:59;;;;;;;3.75;0.98;;;;;;;;;;6301544;22;20029;-41
2021/07/13 06:25:24;;;;;;;1.42;0.57;;;;;;;;;;6301401;22;19999;-44
2021/07/13 06:27:49;;;;;;;4.68;1.33;;;;;;;;;;6301436;22;20006;-40
2021/07/13 06:30:15;;;;;;;6.30;1.65;;;;;;;;;;6301940;22;20074;-45
2021/07/13 06:32:41;;;;;;;4.95;1.08;;;;;;;;;;6300884;22;20407;-42
2021/07/13 06:35:06;;;;;;;5.82;1.25;;;;;;;;;;6301318;22;19991;-43
2021/07/13 06:37:31;;;;;;;5.15;0.90;;;;;;;;;;6301971;22;20006;-43
2021/07/13 06:39:57;;;;;;;2.08;1.02;;;;;;;;;;6301330;22;20537;-44
2021/07/13 06:42:22;;;;;;;1.42;1.27;;;;;;;;;;6301860;22;19999;-42
2021/07/13 06:44:48;;;;;;;8.45;2.10;;;;;;;;;;6301889;22;20079;-41
2021/07/13 06:47:13;;;;;;;4.55;2.17;;;;;;;;;;6301624;22;20022;-43
2021/07/13 06:49:40;;;;;;;13.07;7.45;;;;;;;;;;6301225;22;20514;-40
2021/07/13 06:52:05;;;;;;;6.38;3.22;;;;;;;;;;6301140;22;19995;-42
2021/07/13 06:54:31;;;;;;;6.47;2.38;;;;;;;;;;6301089;22;20011;-42
2021/07/13 06:56:56;;;;;;;10.63;1.48;;;;;;;;;;6299633;22;19999;-41
2021/07/13 06:59:21;;;;;;;0.93;0.73;;;;;;;;;;6300507;22;20013;-44
2021/07/13 07:01:46;;;;;;;7.40;3.15;;;;;;;;;;6299968;22;20003;-42
2021/07/13 07:04:12;;;;;;;10.77;1.95;;;;;;;;;;6299616;22;20007;-46
2021/07/13 07:06:37;;;;;;;3.00;1.77;;;;;;;;;;6299653;22;20000;-44
2021/07/13 07:09:02;;;;;;;10.43;1.83;;;;;;;;;;6299705;22;20026;-44
2021/07/13 07:11:28;;;;;;;4.82;2.22;;;;;;;;;;6299401;22;20418;-44
2021/07/13 07:13:53;;;;;;;6.90;2.03;;;;;;;;;;6299481;22;20022;-44
2021/07/13 07:16:18;;;;;;;2.25;1.27;;;;;;;;;;6300651;22;20004;-45
2021/07/13 07:18:44;;;;;;;4.10;1.45;;;;;;;;;;6300763;22;20343;-45
2021/07/13 07:21:09;;;;;;;3.70;1.05;;;;;;;;;;6301351;22;19999;-45
2021/07/13 07:23:34;;;;;;;1.65;1.15;;;;;;;;;;6300971;22;20003;-44
2021/07/13 07:25:59;;;;;;;5.32;1.60;;;;;;;;;;6300584;22;20003;-44
2021/07/13 07:28:25;;;;;;;11.75;3.17;;;;;;;;;;6300313;22;19995;-44
2021/07/13 07:30:51;;;;;;;3.42;1.45;;;;;;;;;;6300926;22;20336;-43
2021/07/13 07:33:16;;;;;;;6.38;2.05;;;;;;;;;;6300946;22;20104;-43
2021/07/13 07:35:41;;;;;;;6.00;2.05;;;;;;;;;;6301070;22;19999;-44
2021/07/13 07:38:07;;;;;;;5.50;1.52;;;;;;;;;;6301382;22;20343;-43
2021/07/13 07:40:32;;;;;;;9.52;1.85;;;;;;;;;;6301296;22;20467;-44
2021/07/13 07:42:58;;;;;;;1.95;0.85;;;;;;;;;;6300823;22;20007;-44
2021/07/13 07:45:23;;;;;;;5.32;1.63;;;;;;;;;;6300478;22;20082;-44
2021/07/13 07:47:50;;;;;;;2.58;0.90;;;;;;;;;;6300192;22;20122;-44
2021/07/13 07:50:15;;;;;;;3.55;1.15;;;;;;;;;;6301211;22;20003;-44
2021/07/13 07:52:41;;;;;;;4.03;0.90;;;;;;;;;;6300919;22;19999;-44
2021/07/13 07:55:07;;;;;;;1.05;0.82;;;;;;;;;;6301342;22;20070;-44
2021/07/13 07:57:33;;;;;;;10.40;2.22;;;;;;;;;;6301297;22;20127;-44
2021/07/13 07:59:58;;;;;;;11.27;2.83;;;;;;;;;;6301254;22;20070;-44
2021/07/13 08:02:23;;;;;;;17.98;1.75;;;;;;;;;;6300603;22;20406;-44
2021/07/13 08:04:49;;;;;;;0.98;0.70;;;;;;;;;;6300550;22;20427;-44
2021/07/13 08:07:14;;;;;;;13.52;2.92;;;;;;;;;;6301094;22;20003;-44
2021/07/13 08:09:39;;;;;;;8.88;1.60;;;;;;;;;;6300043;22;20006;-44
2021/07/13 08:12:05;;;;;;;3.30;0.95;;;;;;;;;;6300033;22;20029;-44
2021/07/13 08:14:30;;;;;;;1.77;1.13;;;;;;;;;;6300413;22;20647;-44
2021/07/13 08:16:56;;;;;;;2.03;1.00;;;;;;;;;;6300367;22;19996;-44
2021/07/13 08:19:21;;;;;;;9.35;2.78;;;;;;;;;;6300790;22;20000;-44
2021/07/13 08:21:47;;;;;;;10.45;1.52;;;;;;;;;;6301063;22;20335;-44
2021/07/13 08:24:12;;;;;;;14.32;2.42;;;;;;;;;;6300563;22;20003;-44
2021/07/13 08:26:38;;;;;;;14.18;2.75;;;;;;;;;;6300446;22;19999;-43
2021/07/13 08:29:04;;;;;;;10.95;2.25;;;;;;;;;;6299988;22;20099;-44
2021/07/13 08:31:29;;;;;;;13.40;1.27;;;;;;;;;;6299126;22;20006;-44
2021/07/13 08:33:54;;;;;;;2.15;1.17;;;;;;;;;;6299169;22;20003;-44
2021/07/13 08:36:20;;;;;;;8.60;1.73;;;;;;;;;;6299475;22;20052;-48
2021/07/13 08:38:45;;;;;;;8.27;1.85;;;;;;;;;;6299493;22;20006;-43
2021/07/13 08:41:11;;;;;;;1.73;1.17;;;;;;;;;;6299464;22;20629;-46
2021/07/13 08:43:37;;;;;;;1.45;0.65;;;;;;;;;;6299324;22;20007;-46
2021/07/13 08:46:02;;;;;;;1.73;0.80;;;;;;;;;;6299350;22;20112;-46
2021/07/13 08:48:28;;;;;;;4.07;1.98;;;;;;;;;;6300226;22;20448;-46
2021/07/13 08:50:58;;;;;;;1.60;0.98;;;;;;;;;;6300680;22;20324;-46
2021/07/13 08:53:23;;;;;;;5.20;1.35;;;;;;;;;;6300025;22;20033;-45
2021/07/13 08:55:49;;;;;;;3.83;1.55;;;;;;;;;;6300969;22;19995;-47
2021/07/13 08:58:14;;;;;;;1.45;0.90;;;;;;;;;;6302256;22;20097;-46
2021/07/13 09:00:40;;;;;;;2.30;0.80;;;;;;;;;;6302162;22;20003;-41
2021/07/13 09:03:11;;;;;;;2.20;0.63;;;;;;;;;;6302216;22;20018;-38
2021/07/13 09:05:56;;;;;;;2.97;1.42;;;;;;;;;;6301660;22;20495;-38
2021/07/13 09:08:26;;;;;;;2.88;1.42;;;;;;;;;;6302510;22;19999;-38
2021/07/13 09:10:58;;;;;;;9.57;0.85;;;;;;;;;;6302429;22;20090;-42
2021/07/13 09:13:24;;;;;;;6.45;1.00;;;;;;;;;;6301968;22;20168;-41
2021/07/13 09:15:54;;;;;;;4.70;1.38;;;;;;;;;;6301342;22;19995;-38
2021/07/13 09:18:27;;;;;;;1.73;1.05;;;;;;;;;;6302131;22;20062;-39
2021/07/13 09:21:03;;;;;;;5.47;0.88;;;;;;;;;;6302201;22;20014;-39
2021/07/13 09:23:28;;;;;;;3.72;0.85;;;;;;;;;;6302123;22;20021;-40
2021/07/13 09:25:54;;;;;;;5.35;2.22;;;;;;;;;;6301842;22;19999;-39
2021/07/13 09:28:20;;;;;;;6.15;2.15;;;;;;;;;;6301476;22;19999;-38
2021/07/13 09:30:46;;;;;;;2.58;1.50;;;;;;;;;;6301989;22;19995;-38
2021/07/13 09:33:12;;;;;;;2.35;1.08;;;;;;;;;;6302224;22;20082;-40
2021/07/13 09:35:37;;;;;;;3.60;1.52;;;;;;;;;;6301819;22;20003;-39
2021/07/13 09:38:03;;;;;;;5.57;1.05;;;;;;;;;;6302526;22;20006;-45
2021/07/13 09:40:34;;;;;;;3.40;1.65;;;;;;;;;;6301796;22;20054;-42
2021/07/13 09:42:59;;;;;;;17.08;2.65;;;;;;;;;;6301732;22;19999;-42
2021/07/13 09:45:24;;;;;;;9.13;1.10;;;;;;;;;;6301592;22;20029;-38
2021/07/13 09:47:51;;;;;;;8.95;2.78;;;;;;;;;;6300842;22;19995;-44
2021/07/13 09:50:30;;;;;;;13.23;1.58;;;;;;;;;;6301494;22;19992;-40
2021/07/13 09:53:04;;;;;;;8.98;1.63;;;;;;;;;;6302015;22;19992;-41
2021/07/13 09:55:29;;;;;;;5.78;1.20;;;;;;;;;;6300818;22;19995;-38
2021/07/13 09:58:08;;;;;;;7.95;1.85;;;;;;;;;;6297536;22;20033;-38
2021/07/13 10:00:33;;;;;;;6.90;1.77;;;;;;;;;;6300047;22;20002;-39
2021/07/13 10:02:59;;;;;;;11.27;1.20;;;;;;;;;;6301637;22;20004;-38
2021/07/13 10:05:27;;;;;;;1.98;1.38;;;;;;;;;;6302154;22;20404;-42
2021/07/13 10:07:53;;;;;;;11.02;1.33;;;;;;;;;;6302116;22;19995;-42
2021/07/13 10:10:20;;;;;;;1.98;1.00;;;;;;;;;;6302242;22;19999;-43
2021/07/13 10:12:46;;;;;;;13.82;1.67;;;;;;;;;;6301944;22;20180;-41
2021/07/13 10:15:12;;;;;;;9.40;1.52;;;;;;;;;;6301692;22;20022;-42
2021/07/13 10:17:38;;;;;;;7.13;1.70;;;;;;;;;;6301449;22;20003;-40
2021/07/13 10:20:07;;;;;;;2.67;1.55;;;;;;;;;;6302073;22;19995;-41
2021/07/13 10:22:35;;;;;;;2.65;1.38;;;;;;;;;;6301578;22;20083;-41
2021/07/13 10:25:01;;;;;;;2.60;1.35;;;;;;;;;;6301547;22;20003;-41
2021/07/13 10:27:31;;;;;;;1.98;0.88;;;;;;;;;;6300991;22;19995;-37
2021/07/13 10:29:58;;;;;;;3.47;0.98;;;;;;;;;;6301558;22;19999;-46
2021/07/13 10:32:23;;;;;;;5.47;1.25;;;;;;;;;;6301236;22;20432;-47
2021/07/13 10:34:49;;;;;;;8.82;1.70;;;;;;;;;;6301490;22;20010;-46
2021/07/13 10:37:28;;;;;;;4.05;1.67;;;;;;;;;;6301060;22;20006;-45
2021/07/13 10:40:14;;;;;;;4.30;1.30;;;;;;;;;;6301840;22;20006;-48
2021/07/13 10:42:39;;;;;;;4.32;1.80;;;;;;;;;;6301108;22;20034;-39
2021/07/13 10:45:13;;;;;;;2.72;1.60;;;;;;;;;;6301570;22;20428;-39
2021/07/13 10:47:53;;;;;;;3.78;0.90;;;;;;;;;;6301325;22;20459;-39
2021/07/13 10:50:18;;;;;;;5.95;1.67;;;;;;;;;;6301638;22;20010;-50
2021/07/13 10:53:03;;;;;;;8.82;1.83;;;;;;;;;;6301620;22;19995;-43
2021/07/13 10:55:31;;;;;;;2.25;1.35;;;;;;;;;;6300733;22;20009;-50
2021/07/13 10:58:11;;;;;;;3.85;1.20;;;;;;;;;;6301731;22;19995;-45
2021/07/13 11:00:49;;;;;;;5.05;0.63;;;;;;;;;;6301136;22;19995;-44
2021/07/13 11:03:26;;;;;;;5.90;1.83;;;;;;;;;;6301404;22;20417;-42
2021/07/13 11:05:52;;;;;;;4.50;1.77;;;;;;;;;;6301460;22;19999;-44
2021/07/13 11:08:36;;;;;;;0.77;0.65;;;;;;;;;;6300773;22;20526;-43
2021/07/13 11:11:01;;;;;;;3.97;1.05;;;;;;;;;;6301941;22;19995;-43
2021/07/13 11:13:26;;;;;;;4.30;1.10;;;;;;;;;;6301689;22;20124;-49
2021/07/13 11:15:52;;;;;;;3.28;1.63;;;;;;;;;;6301454;22;20493;-44
2021/07/13 11:18:25;;;;;;;5.90;2.83;;;;;;;;;;6301221;22;20062;-45
2021/07/13 11:20:50;;;;;;;6.93;1.92;;;;;;;;;;6301385;22;20000;-46
2021/07/13 11:23:25;;;;;;;4.30;1.85;;;;;;;;;;6301769;22;20117;-44
2021/07/13 11:26:01;;;;;;;2.92;1.20;;;;;;;;;;6301702;22;20481;-44
2021/07/13 11:28:26;;;;;;;1.95;0.90;;;;;;;;;;6300904;22;20027;-48
2021/07/13 11:30:52;;;;;;;10.82;1.67;;;;;;;;;;6301172;22;20010;-45
2021/07/13 11:33:24;;;;;;;5.65;0.98;;;;;;;;;;6301120;22;19999;-44
2021/07/13 11:35:50;;;;;;;3.33;1.50;;;;;;;;;;6300897;22;20061;-42
2021/07/13 11:38:22;;;;;;;1.45;0.73;;;;;;;;;;6300167;22;20448;-47
2021/07/13 11:41:06;;;;;;;4.32;2.00;;;;;;;;;;6301142;22;20439;-40
2021/07/13 11:43:31;;;;;;;4.05;1.42;;;;;;;;;;6300960;22;19999;-43
2021/07/13 11:46:09;;;;;;;2.92;1.25;;;;;;;;;;6301116;22;20014;-41
2021/07/13 11:48:34;;;;;;;5.35;1.58;;;;;;;;;;6300005;22;20038;-41
2021/07/13 11:50:59;;;;;;;4.60;1.35;;;;;;;;;;6300536;22;19995;-42
2021/07/13 11:53:28;;;;;;;6.45;2.60;;;;;;;;;;6301066;22;20079;-43
2021/07/13 11:55:56;;;;;;;10.18;2.55;;;;;;;;;;6301228;22;20007;-44
2021/07/13 11:58:31;;;;;;;1.83;1.35;;;;;;;;;;6301070;22;20003;-47
2021/07/13 12:01:16;;;;;;;6.57;3.22;;;;;;;;;;6301154;22;19995;-43
2021/07/13 12:03:41;;;;;;;13.75;2.50;;;;;;;;;;6301002;22;20007;-43
2021/07/13 12:06:11;;;;;;;4.28;2.17;;;;;;;;;;6301284;22;20440;-45
2021/07/13 12:08:37;;;;;;;47.72;13.52;;;;;;;;;;6300850;22;20015;-43
2021/07/13 12:11:02;;;;;;;10.40;4.45;;;;;;;;;;6301087;22;19999;-44
2021/07/13 12:13:27;;;;;;;2.83;1.10;;;;;;;;;;6301068;22;20073;-42
2021/07/13 12:15:53;;;;;;;3.30;0.82;;;;;;;;;;6301061;22;20372;-43
2021/07/13 12:18:18;;;;;;;4.20;1.10;;;;;;;;;;6300921;22;20000;-43
2021/07/13 12:20:44;;;;;;;2.40;1.70;;;;;;;;;;6301453;22;19999;-43
2021/07/13 12:23:09;;;;;;;2.22;1.33;;;;;;;;;;6301091;22;20031;-43
2021/07/13 12:25:35;;;;;;;2.35;1.02;;;;;;;;;;6300624;22;20677;-43
2021/07/13 12:28:11;;;;;;;9.13;1.80;;;;;;;;;;6300582;22;19999;-43
2021/07/13 12:30:36;;;;;;;13.52;1.25;;;;;;;;;;6300821;22;20446;-42
2021/07/13 12:33:02;;;;;;;6.07;1.38;;;;;;;;;;6302662;22;20086;-45
2021/07/13 12:35:28;;;;;;;1.60;0.95;;;;;;;;;;6303127;22;20002;-45
2021/07/13 12:37:53;;;;;;;1.60;0.95;;;;;;;;;;6303101;22;20390;-42
2021/07/13 12:40:18;;;;;;;1.77;1.13;;;;;;;;;;6302786;22;20710;-44
2021/07/13 12:42:47;;;;;;;6.32;0.93;;;;;;;;;;6302994;22;19999;-44
2021/07/13 12:45:12;;;;;;;5.63;1.08;;;;;;;;;;6302646;22;19999;-45
2021/07/13 12:47:38;;;;;;;15.18;1.92;;;;;;;;;;6302973;22;20009;-43
2021/07/13 12:50:17;;;;;;;6.03;1.88;;;;;;;;;;6302661;22;20006;-44
2021/07/13 12:52:45;;;;;;;3.45;1.70;;;;;;;;;;6302836;22;20026;-42
2021/07/13 12:55:16;;;;;;;2.60;1.30;;;;;;;;;;6303074;22;20003;-43
2021/07/13 12:57:46;;;;;;;2.57;0.87;;;;;;;;;;6302245;22;20000;-44
2021/07/13 13:00:11;;;;;;;3.65;1.33;;;;;;;;;;6302533;22;20235;-43
2021/07/13 13:02:37;;;;;;;17.15;1.90;;;;;;;;;;6302695;22;20007;-42
2021/07/13 13:05:06;;;;;;;9.55;1.10;;;;;;;;;;6302792;22;20471;-45
2021/07/13 13:07:32;;;;;;;5.40;1.88;;;;;;;;;;6302424;22;20002;-46
2021/07/13 13:09:57;;;;;;;3.47;1.55;;;;;;;;;;6302530;22;20003;-45
2021/07/13 13:12:23;;;;;;;0.95;0.75;;;;;;;;;;6302362;22;19991;-50
2021/07/13 13:14:49;;;;;;;1.58;0.68;;;;;;;;;;6302480;22;20094;-46
2021/07/13 13:17:16;;;;;;;3.55;0.82;;;;;;;;;;6302961;22;19991;-51
2021/07/13 13:19:42;;;;;;;1.52;0.95;;;;;;;;;;6302586;22;20003;-45
2021/07/13 13:22:07;;;;;;;2.58;0.77;;;;;;;;;;6302708;22;20041;-51
2021/07/13 13:24:33;;;;;;;1.95;1.05;;;;;;;;;;6302072;22;20200;-54
2021/07/13 13:26:58;;;;;;;4.10;0.77;;;;;;;;;;6302158;22;20002;-45
2021/07/13 13:29:23;;;;;;;1.33;0.73;;;;;;;;;;6302042;22;20007;-46
2021/07/13 13:31:49;;;;;;;13.93;2.08;;;;;;;;;;6302213;22;20110;-45
2021/07/13 13:34:14;;;;;;;7.72;5.88;;;;;;;;;;6302183;22;20076;-48
2021/07/13 13:36:43;;;;;;;3.25;1.05;;;;;;;;;;6302150;22;20078;-43
2021/07/13 13:39:18;;;;;;;1.23;0.70;;;;;;;;;;6302428;22;20005;-45
2021/07/13 13:41:46;;;;;;;1.58;0.70;;;;;;;;;;6301693;22;19995;-46
2021/07/13 13:44:12;;;;;;;2.40;0.65;;;;;;;;;;6302392;22;19995;-46
2021/07/13 13:46:38;;;;;;;2.22;0.52;;;;;;;;;;6301839;22;20062;-42
2021/07/13 13:49:04;;;;;;;2.60;1.20;;;;;;;;;;6302213;22;20080;-41
2021/07/13 13:51:29;;;;;;;2.45;0.77;;;;;;;;;;6301797;22;20003;-54
2021/07/13 13:53:55;;;;;;;2.67;0.90;;;;;;;;;;6301994;22;19995;-51
2021/07/13 13:56:21;;;;;;;2.90;0.98;;;;;;;;;;6302160;22;19995;-45
2021/07/13 13:58:47;;;;;;;2.78;1.40;;;;;;;;;;6302348;22;20420;-49
2021/07/13 14:01:13;;;;;;;5.10;0.73;;;;;;;;;;6300784;22;20332;-49
2021/07/13 14:03:39;;;;;;;2.67;0.77;;;;;;;;;;6301808;22;20057;-49
2021/07/13 14:06:05;;;;;;;2.45;0.85;;;;;;;;;;6302431;22;20003;-46
2021/07/13 14:08:32;;;;;;;1.15;0.88;;;;;;;;;;6301827;22;20010;-45
2021/07/13 14:10:57;;;;;;;1.85;0.82;;;;;;;;;;6301764;22;20003;-45
2021/07/13 14:13:23;;;;;;;0.98;0.50;;;;;;;;;;6302159;22;20015;-50
2021/07/13 14:15:48;;;;;;;10.93;0.63;;;;;;;;;;6301537;22;19988;-46
2021/07/13 14:18:13;;;;;;;2.22;0.70;;;;;;;;;;6301734;22;19995;-44
2021/07/13 14:20:39;;;;;;;1.75;1.50;;;;;;;;;;6301984;22;20003;-46
2021/07/13 14:23:04;;;;;;;1.25;0.70;;;;;;;;;;6301682;22;20022;-45
2021/07/13 14:25:29;;;;;;;2.80;0.75;;;;;;;;;;6301355;22;20003;-46
2021/07/13 14:27:55;;;;;;;1.38;0.88;;;;;;;;;;6301948;22;20041;-44
2021/07/13 14:30:22;;;;;;;2.15;0.63;;;;;;;;;;6301348;22;20087;-45
2021/07/13 14:32:48;;;;;;;0.68;0.52;;;;;;;;;;6301420;22;20048;-48
2021/07/13 14:35:13;;;;;;;10.00;1.30;;;;;;;;;;6301676;22;19995;-46
2021/07/13 14:37:39;;;;;;;3.20;1.23;;;;;;;;;;6301394;22;20369;-49